Virgem Dolorosa — CUEQ3 — position and weather

sailwx.info

Track history (hours):
 
Tides and Currents Weather Stations Pressure Air Temp Water Temp Dewpoint Dewpoint Depression Visibility Wind Speed Wind Dir Waves Ship Positions

Virgem Dolorosa

Last reported at 2017-Oct-20 10:49 UTC. Time now 2017-Oct-20 16:13 UTC.
Position N 41°11' W 008°42'.

Length 24 m.

Type: Fishing. MMSI: 263411260.

Date/timePositionNaut miles runAvg speedWind from/ knotsBaromVisibWave heightAir tempDewpointWater temp
2017-Oct-20 10:49N 41°11' W 008°42'0 0.0
2017-Oct-20 10:30N 41°11' W 008°42'0 0.0
2017-Oct-20 10:01N 41°11' W 008°42'0 0.0
2017-Oct-20 09:30N 41°11' W 008°42'3 0.2
2017-Oct-19 22:09N 41°08' W 008°43'1 9.8
2017-Oct-19 22:00N 41°10' W 008°42'1 0.1
2017-Oct-19 13:30N 41°11' W 008°42'0 0.0
2017-Oct-19 13:01N 41°11' W 008°42'0 0.1
2017-Oct-19 12:31N 41°11' W 008°42'0 0.0
2017-Oct-19 12:01N 41°11' W 008°42'0 0.0
2017-Oct-19 11:31N 41°11' W 008°42'0 0.0
2017-Oct-19 11:01N 41°11' W 008°42'1 2.7
2017-Oct-19 10:31N 41°10' W 008°42'4 0.3
2017-Oct-18 22:25N 41°06' W 008°44'410.0
2017-Oct-18 22:01N 41°10' W 008°42'1 2.1
2017-Oct-18 21:30N 41°11' W 008°42'0 0.0
2017-Oct-17 11:00N 41°11' W 008°42'0 0.0
2017-Oct-17 10:31N 41°11' W 008°42'0 0.1
2017-Oct-17 10:00N 41°11' W 008°42'0 0.0
2017-Oct-17 09:30N 41°11' W 008°42'0 0.0
2017-Oct-17 09:01N 41°11' W 008°42'0 0.0
2017-Oct-17 08:31N 41°11' W 008°42'0 0.0
2017-Oct-17 08:01N 41°11' W 008°42'4 8.4
2017-Oct-17 07:31N 41°07' W 008°44'0 0.0
2017-Oct-16 22:28N 41°07' W 008°44'4 9.6
2017-Oct-16 22:00N 41°11' W 008°42'0 0.3
2017-Oct-16 21:30N 41°11' W 008°42'0 0.0
2017-Oct-15 23:32N 41°11' W 008°42'0 0.0
2017-Oct-15 23:30N 41°11' W 008°42'0 0.0
2017-Oct-15 23:00N 41°11' W 008°42'0 0.0
2017-Oct-14 10:23N 41°11' W 008°42'0 0.0
2017-Oct-14 10:00N 41°11' W 008°42'0 0.0
2017-Oct-13 09:14N 41°11' W 008°42'0 0.0
2017-Oct-13 09:00N 41°11' W 008°42'0 0.0
2017-Oct-13 08:30N 41°11' W 008°42'0 0.0
2017-Oct-13 08:00N 41°11' W 008°42'0 0.0
2017-Oct-13 07:30N 41°11' W 008°42'0 0.0
2017-Oct-13 07:00N 41°11' W 008°42'0 0.0
2017-Oct-13 06:30N 41°11' W 008°42'0 0.0
2017-Oct-13 06:00N 41°11' W 008°42'0 0.1
2017-Oct-13 05:30N 41°11' W 008°42'4 0.5
2017-Oct-12 22:14N 41°08' W 008°45'210.8
2017-Oct-12 22:00N 41°10' W 008°43'1 3.0
2017-Oct-12 21:30N 41°11' W 008°42'0 0.0
2017-Oct-12 09:23N 41°11' W 008°42'0 0.0
2017-Oct-12 09:00N 41°11' W 008°42'0 0.0
2017-Oct-12 08:30N 41°11' W 008°42'0 0.0
2017-Oct-12 08:00N 41°11' W 008°42'0 0.0
2017-Oct-12 07:30N 41°11' W 008°42'1 2.8
2017-Oct-12 07:00N 41°10' W 008°43'2 0.2
2017-Oct-11 22:10N 41°09' W 008°45'210.7
2017-Oct-11 22:00N 41°10' W 008°43'1 0.0
2017-Oct-10 11:34N 41°11' W 008°42'0 0.0
2017-Oct-10 11:30N 41°11' W 008°42'0 0.0
2017-Oct-10 11:00N 41°11' W 008°42'  
Track history (hours):
 
Tides and Currents Weather Stations Pressure Air Temp Water Temp Dewpoint Dewpoint Depression Visibility Wind Speed Wind Dir Waves Ship Positions

Virgem Dolorosa

Last reported at 2017-Oct-20 10:49 UTC. Time now 2017-Oct-20 16:13 UTC.
Position N 41°11' W 008°42'.

Length 24 m.

Type: Fishing. MMSI: 263411260.

Date/timePositionNaut miles runAvg speedWind from/ knotsBaromVisibWave heightAir tempDewpointWater temp
2017-Oct-20 10:49N 41°11' W 008°42'0 0.0
2017-Oct-20 10:30N 41°11' W 008°42'0 0.0
2017-Oct-20 10:01N 41°11' W 008°42'0 0.0
2017-Oct-20 09:30N 41°11' W 008°42'3 0.2
2017-Oct-19 22:09N 41°08' W 008°43'1 9.8
2017-Oct-19 22:00N 41°10' W 008°42'1 0.1
2017-Oct-19 13:30N 41°11' W 008°42'0 0.0
2017-Oct-19 13:01N 41°11' W 008°42'0 0.1
2017-Oct-19 12:31N 41°11' W 008°42'0 0.0
2017-Oct-19 12:01N 41°11' W 008°42'0 0.0
2017-Oct-19 11:31N 41°11' W 008°42'0 0.0
2017-Oct-19 11:01N 41°11' W 008°42'1 2.7
2017-Oct-19 10:31N 41°10' W 008°42'4 0.3
2017-Oct-18 22:25N 41°06' W 008°44'410.0
2017-Oct-18 22:01N 41°10' W 008°42'1 2.1
2017-Oct-18 21:30N 41°11' W 008°42'0 0.0
2017-Oct-17 11:00N 41°11' W 008°42'0 0.0
2017-Oct-17 10:31N 41°11' W 008°42'0 0.1
2017-Oct-17 10:00N 41°11' W 008°42'0 0.0
2017-Oct-17 09:30N 41°11' W 008°42'0 0.0
2017-Oct-17 09:01N 41°11' W 008°42'0 0.0
2017-Oct-17 08:31N 41°11' W 008°42'0 0.0
2017-Oct-17 08:01N 41°11' W 008°42'4 8.4
2017-Oct-17 07:31N 41°07' W 008°44'0 0.0
2017-Oct-16 22:28N 41°07' W 008°44'4 9.6
2017-Oct-16 22:00N 41°11' W 008°42'0 0.3
2017-Oct-16 21:30N 41°11' W 008°42'0 0.0
2017-Oct-15 23:32N 41°11' W 008°42'0 0.0
2017-Oct-15 23:30N 41°11' W 008°42'0 0.0
2017-Oct-15 23:00N 41°11' W 008°42'0 0.0
2017-Oct-14 10:23N 41°11' W 008°42'0 0.0
2017-Oct-14 10:00N 41°11' W 008°42'0 0.0
2017-Oct-13 09:14N 41°11' W 008°42'0 0.0
2017-Oct-13 09:00N 41°11' W 008°42'0 0.0
2017-Oct-13 08:30N 41°11' W 008°42'0 0.0
2017-Oct-13 08:00N 41°11' W 008°42'0 0.0
2017-Oct-13 07:30N 41°11' W 008°42'0 0.0
2017-Oct-13 07:00N 41°11' W 008°42'0 0.0
2017-Oct-13 06:30N 41°11' W 008°42'0 0.0
2017-Oct-13 06:00N 41°11' W 008°42'0 0.1
2017-Oct-13 05:30N 41°11' W 008°42'4 0.5
2017-Oct-12 22:14N 41°08' W 008°45'210.8
2017-Oct-12 22:00N 41°10' W 008°43'1 3.0
2017-Oct-12 21:30N 41°11' W 008°42'0 0.0
2017-Oct-12 09:23N 41°11' W 008°42'0 0.0
2017-Oct-12 09:00N 41°11' W 008°42'0 0.0
2017-Oct-12 08:30N 41°11' W 008°42'0 0.0
2017-Oct-12 08:00N 41°11' W 008°42'0 0.0
2017-Oct-12 07:30N 41°11' W 008°42'1 2.8
2017-Oct-12 07:00N 41°10' W 008°43'2 0.2
2017-Oct-11 22:10N 41°09' W 008°45'210.7
2017-Oct-11 22:00N 41°10' W 008°43'1 0.0
2017-Oct-10 11:34N 41°11' W 008°42'0 0.0
2017-Oct-10 11:30N 41°11' W 008°42'0 0.0
2017-Oct-10 11:00N 41°11' W 008°42'  

Dump ship's entire track history